createdAt,value
2023-03-03T00:00:29.246Z,101941.06
2023-03-03T00:03:06.331Z,101933.09
2023-03-03T00:05:39.722Z,101943.72
2023-03-03T00:08:12.939Z,101935.50
2023-03-03T00:10:46.164Z,101942.03
2023-03-03T00:13:22.726Z,101930.97
2023-03-03T00:16:12.266Z,101933.06
2023-03-03T00:18:46.846Z,101933.00
2023-03-03T00:21:30.090Z,101937.06
2023-03-03T00:24:19.304Z,101947.50
2023-03-03T00:26:55.388Z,101938.22
2023-03-03T00:29:36.647Z,101954.34
2023-03-03T00:32:24.031Z,101942.31
2023-03-03T00:35:02.851Z,101952.13
2023-03-03T00:37:36.581Z,101963.00
2023-03-03T00:40:22.450Z,101965.44
2023-03-03T00:42:56.913Z,101957.91
2023-03-03T00:45:36.274Z,101964.34
2023-03-03T00:48:21.991Z,101952.03
2023-03-03T00:50:56.483Z,101961.44
2023-03-03T00:53:31.056Z,101951.13
2023-03-03T00:56:03.863Z,101944.59
2023-03-03T00:58:36.661Z,101961.38
2023-03-03T01:01:10.879Z,101965.69
2023-03-03T01:03:49.668Z,101966.97
2023-03-03T01:06:22.451Z,101963.63
2023-03-03T01:08:57.230Z,101967.03
2023-03-03T01:11:30.449Z,101973.44
2023-03-03T01:14:03.384Z,101971.47
2023-03-03T01:16:37.596Z,101970.38
2023-03-03T01:19:10.806Z,101970.97
2023-03-03T01:21:43.673Z,101969.94
2023-03-03T01:24:16.489Z,101968.28
2023-03-03T01:26:49.615Z,101965.66
2023-03-03T01:29:22.705Z,101957.28
2023-03-03T01:31:57.242Z,101960.13
2023-03-03T01:34:30.091Z,101960.75
2023-03-03T01:37:04.806Z,101944.69
2023-03-03T01:39:37.650Z,101956.66
2023-03-03T01:42:10.611Z,101955.22
2023-03-03T01:44:43.546Z,101948.66
2023-03-03T01:47:20.408Z,101939.03
2023-03-03T01:49:59.474Z,101956.28
2023-03-03T01:52:36.320Z,101955.06
2023-03-03T01:55:14.854Z,101954.94
2023-03-03T01:57:51.381Z,101949.28
2023-03-03T02:00:25.180Z,101957.84
2023-03-03T02:02:59.821Z,101954.72
2023-03-03T02:05:34.008Z,101951.03
2023-03-03T02:08:08.980Z,101957.91
2023-03-03T02:10:41.630Z,101965.69
2023-03-03T02:13:16.542Z,101950.84
2023-03-03T02:15:49.358Z,101959.31
2023-03-03T02:18:24.090Z,101951.44
2023-03-03T02:21:03.385Z,101948.00
2023-03-03T02:23:41.007Z,101953.00
2023-03-03T02:26:17.393Z,101949.72
2023-03-03T02:28:51.937Z,101948.09
2023-03-03T02:31:27.812Z,101935.78
2023-03-03T02:34:01.146Z,101938.16
2023-03-03T02:36:36.030Z,101954.63
2023-03-03T02:39:13.428Z,101937.19
2023-03-03T02:41:53.218Z,101958.22
2023-03-03T02:44:28.588Z,101960.41
2023-03-03T02:47:01.858Z,101954.81
2023-03-03T02:49:36.835Z,101938.28
2023-03-03T02:52:11.385Z,101957.06
2023-03-03T02:54:47.377Z,101958.38
2023-03-03T02:57:21.669Z,101948.69
2023-03-03T02:59:55.014Z,101950.00
2023-03-03T03:02:28.257Z,101951.03
2023-03-03T03:05:01.817Z,101949.00
2023-03-03T03:07:34.795Z,101940.22
2023-03-03T03:10:09.878Z,101952.97
2023-03-03T03:12:46.226Z,101952.97
2023-03-03T03:15:19.933Z,101949.50
2023-03-03T03:17:53.108Z,101944.00
2023-03-03T03:20:26.101Z,101958.69
2023-03-03T03:22:58.978Z,101955.06
2023-03-03T03:25:31.960Z,101951.44
2023-03-03T03:28:06.300Z,101966.97
2023-03-03T03:30:40.009Z,101970.56
2023-03-03T03:33:13.841Z,101965.59
2023-03-03T03:35:48.848Z,101968.41
2023-03-03T03:38:23.683Z,101963.78
2023-03-03T03:40:57.184Z,101961.34
2023-03-03T03:43:31.675Z,101967.44
2023-03-03T03:46:05.780Z,101973.34
2023-03-03T03:48:39.488Z,101975.72
2023-03-03T03:51:14.295Z,101976.69
2023-03-03T03:53:47.821Z,101973.34
2023-03-03T03:56:20.808Z,101966.06
2023-03-03T03:59:00.611Z,101975.38
2023-03-03T04:01:34.033Z,101977.94
2023-03-03T04:04:07.012Z,101970.88
2023-03-03T04:06:40.823Z,101970.88
2023-03-03T04:09:13.875Z,101962.78
2023-03-03T04:11:46.990Z,101970.69
2023-03-03T04:14:22.304Z,101954.81
2023-03-03T04:16:55.150Z,101960.94
2023-03-03T04:19:28.038Z,101972.09
2023-03-03T04:22:01.843Z,101965.00
2023-03-03T04:24:35.604Z,101958.63
2023-03-03T04:27:09.727Z,101953.34
2023-03-03T04:29:44.910Z,101946.59
2023-03-03T04:32:18.620Z,101956.63
2023-03-03T04:34:58.694Z,101948.41
2023-03-03T04:37:40.588Z,101945.63
2023-03-03T04:40:14.301Z,101937.31
2023-03-03T04:42:48.738Z,101951.13
2023-03-03T04:45:23.053Z,101959.78
2023-03-03T04:47:55.880Z,101973.97
2023-03-03T04:50:28.829Z,101965.34
2023-03-03T04:53:02.060Z,101977.25
2023-03-03T04:55:37.118Z,101968.63
2023-03-03T04:58:10.697Z,101974.88
2023-03-03T05:00:48.309Z,101971.59
2023-03-03T05:03:24.069Z,101966.16
2023-03-03T05:05:57.036Z,101986.00
2023-03-03T05:08:29.923Z,101984.19
2023-03-03T05:11:02.842Z,101980.03
2023-03-03T05:13:36.146Z,101992.28
2023-03-03T05:16:10.565Z,101985.59
2023-03-03T05:18:45.430Z,101980.13
2023-03-03T05:21:18.224Z,101980.78
2023-03-03T05:23:52.579Z,101971.34
2023-03-03T05:26:25.932Z,101965.16
2023-03-03T05:28:58.793Z,101951.59
2023-03-03T05:31:33.061Z,101974.06
2023-03-03T05:34:05.920Z,101975.53
2023-03-03T05:36:38.944Z,101985.81
2023-03-03T05:39:11.845Z,101985.72
2023-03-03T05:41:44.654Z,101976.00
2023-03-03T05:44:19.618Z,101963.66
2023-03-03T05:46:56.683Z,101982.63
2023-03-03T05:49:30.125Z,101981.09
2023-03-03T05:52:03.597Z,101982.81
2023-03-03T05:54:36.407Z,101978.88
2023-03-03T05:57:09.191Z,101983.63
2023-03-03T05:59:42.274Z,101992.41
2023-03-03T06:02:16.548Z,101992.22
2023-03-03T06:04:50.129Z,101957.59
2023-03-03T06:07:22.952Z,101999.16
2023-03-03T06:09:55.823Z,101986.41
2023-03-03T06:12:29.782Z,101998.19
2023-03-03T06:15:03.331Z,101998.91
2023-03-03T06:17:37.635Z,102005.66
2023-03-03T06:20:11.885Z,101992.63
2023-03-03T06:22:44.666Z,101998.91
2023-03-03T06:25:18.202Z,101997.63
2023-03-03T06:27:51.340Z,102009.13
2023-03-03T06:30:24.683Z,102008.03
2023-03-03T06:32:59.335Z,102011.59
2023-03-03T06:35:32.380Z,102013.69
2023-03-03T06:38:06.379Z,102019.25
2023-03-03T06:40:39.444Z,102027.81
2023-03-03T06:43:12.452Z,102034.50
2023-03-03T06:45:47.371Z,102019.25
2023-03-03T06:48:21.813Z,102042.41
2023-03-03T06:50:55.145Z,102028.69
2023-03-03T06:53:28.672Z,102038.47
2023-03-03T06:56:03.087Z,102041.66
2023-03-03T06:58:36.540Z,102040.69
2023-03-03T07:01:16.630Z,102048.34
2023-03-03T07:03:51.033Z,102021.78
2023-03-03T07:06:26.348Z,102046.25
2023-03-03T07:08:59.209Z,102056.19
2023-03-03T07:11:32.324Z,102050.94
2023-03-03T07:14:15.048Z,102056.44
2023-03-03T07:16:48.250Z,102066.31
2023-03-03T07:19:29.105Z,102058.66
2023-03-03T07:22:12.258Z,102051.84
2023-03-03T07:24:47.261Z,102067.72
2023-03-03T07:27:23.905Z,102078.09
2023-03-03T07:30:18.479Z,102079.03
2023-03-03T07:32:56.425Z,102074.34
2023-03-03T07:35:41.289Z,102065.81
2023-03-03T07:38:32.191Z,102070.03
2023-03-03T07:41:11.128Z,102086.19
2023-03-03T07:43:49.426Z,102062.47
2023-03-03T07:46:35.903Z,102089.41
2023-03-03T07:49:22.568Z,102091.59
2023-03-03T07:51:58.591Z,102090.69
2023-03-03T07:54:36.229Z,102073.66
2023-03-03T07:57:20.537Z,102093.13
2023-03-03T07:59:55.720Z,102096.81
2023-03-03T08:02:39.696Z,102101.66
2023-03-03T08:05:28.561Z,102104.97
2023-03-03T08:08:26.127Z,102108.22
2023-03-03T08:11:00.163Z,102113.28
2023-03-03T08:13:39.861Z,102106.16
2023-03-03T08:16:34.481Z,102127.56
2023-03-03T08:19:08.042Z,102125.78
2023-03-03T08:21:40.872Z,102128.19
2023-03-03T08:24:15.328Z,102120.59
2023-03-03T08:26:48.574Z,102130.00
2023-03-03T08:29:21.375Z,102123.34
2023-03-03T08:31:54.438Z,102131.69
2023-03-03T08:34:27.473Z,102142.16
2023-03-03T08:37:00.324Z,102127.94
2023-03-03T08:39:34.508Z,102135.22
2023-03-03T08:42:07.925Z,102131.28
2023-03-03T08:44:41.425Z,102132.56
2023-03-03T08:47:14.512Z,102138.03
2023-03-03T08:49:47.278Z,102132.03
2023-03-03T08:52:20.431Z,102141.97
2023-03-03T08:54:54.748Z,102140.94
2023-03-03T08:57:27.623Z,102146.09
2023-03-03T09:00:00.456Z,102143.31
2023-03-03T09:02:33.571Z,102148.44
2023-03-03T09:05:07.480Z,102141.34
2023-03-03T09:07:41.521Z,102136.09
2023-03-03T09:10:19.396Z,102144.00
2023-03-03T09:12:53.360Z,102148.28
2023-03-03T09:15:28.570Z,102151.38
2023-03-03T09:18:14.603Z,102142.63
2023-03-03T09:20:48.825Z,102133.81
2023-03-03T09:23:34.702Z,102139.19
2023-03-03T09:26:26.711Z,102129.69
2023-03-03T09:29:19.048Z,102144.84
2023-03-03T09:31:53.966Z,102150.72
2023-03-03T09:34:40.233Z,102141.91
2023-03-03T09:37:22.854Z,102158.31
2023-03-03T09:39:58.356Z,102152.81
2023-03-03T09:42:56.842Z,102149.81
2023-03-03T09:45:53.200Z,102173.72
2023-03-03T09:48:51.292Z,102163.75
2023-03-03T09:51:42.901Z,102166.75
2023-03-03T09:54:28.673Z,102155.09
2023-03-03T09:57:10.430Z,102163.91
2023-03-03T10:00:00.635Z,102169.03
2023-03-03T10:02:45.057Z,102157.53
2023-03-03T10:05:36.141Z,102171.00
2023-03-03T10:08:31.600Z,102164.56
2023-03-03T10:11:13.630Z,102170.94
2023-03-03T10:14:01.907Z,102176.50
2023-03-03T10:17:07.244Z,102179.19
2023-03-03T10:19:47.723Z,102179.78
2023-03-03T10:22:25.480Z,102175.56
2023-03-03T10:25:09.663Z,102160.31
2023-03-03T10:27:57.052Z,102165.25
2023-03-03T10:30:54.713Z,102180.53
2023-03-03T10:33:43.642Z,102178.44
2023-03-03T10:36:40.543Z,102177.72
2023-03-03T10:39:28.868Z,102185.56
2023-03-03T10:42:22.264Z,102174.34
2023-03-03T10:45:12.919Z,102177.84
2023-03-03T10:47:57.072Z,102177.31
2023-03-03T10:50:37.532Z,102189.94
2023-03-03T10:53:23.311Z,102186.56
2023-03-03T10:56:14.682Z,102182.13
2023-03-03T10:58:59.851Z,102189.72
2023-03-03T11:01:48.147Z,102196.50
2023-03-03T11:04:46.877Z,102181.41
2023-03-03T11:07:25.891Z,102183.78
2023-03-03T11:10:15.936Z,102175.00
2023-03-03T11:13:03.286Z,102183.22
2023-03-03T11:15:49.845Z,102168.88
2023-03-03T11:18:43.260Z,102170.50
2023-03-03T11:21:25.815Z,102166.91
2023-03-03T11:24:20.617Z,102173.63
2023-03-03T11:27:20.771Z,102164.13
2023-03-03T11:30:03.930Z,102155.97
2023-03-03T11:32:44.288Z,102160.81
2023-03-03T11:35:23.659Z,102158.66
2023-03-03T11:38:20.752Z,102163.38
2023-03-03T11:40:58.307Z,102152.78
2023-03-03T11:43:44.987Z,102150.34
2023-03-03T11:46:23.430Z,102152.84
2023-03-03T11:49:01.743Z,102140.84
2023-03-03T11:51:49.041Z,102141.72
2023-03-03T11:54:28.836Z,102141.88
2023-03-03T11:57:15.105Z,102154.13
2023-03-03T12:00:17.281Z,102136.78
2023-03-03T12:03:14.215Z,102138.00
2023-03-03T12:05:57.399Z,102140.47
2023-03-03T12:08:42.493Z,102136.06
2023-03-03T12:11:23.804Z,102130.91
2023-03-03T12:14:03.564Z,102120.94
2023-03-03T12:16:50.436Z,102129.88
2023-03-03T12:19:35.487Z,102123.53
2023-03-03T12:22:34.684Z,102129.69
2023-03-03T12:25:21.664Z,102132.59
2023-03-03T12:28:01.857Z,102107.72
2023-03-03T12:30:50.301Z,102114.06
2023-03-03T12:33:36.813Z,102116.19
2023-03-03T12:36:23.068Z,102115.97
2023-03-03T12:39:03.964Z,102111.66
2023-03-03T12:41:41.859Z,102117.53
2023-03-03T12:44:26.059Z,102101.31
2023-03-03T12:47:02.782Z,102097.31
2023-03-03T12:49:48.058Z,102108.66
2023-03-03T12:52:39.633Z,102105.53
2023-03-03T12:55:22.493Z,102096.56
2023-03-03T12:58:03.951Z,102109.16
2023-03-03T13:00:48.731Z,102100.25
2023-03-03T13:03:43.630Z,102093.28
2023-03-03T13:06:33.692Z,102091.13
2023-03-03T13:09:20.780Z,102090.91
2023-03-03T13:12:09.126Z,102094.59
2023-03-03T13:14:50.088Z,102091.69
2023-03-03T13:17:29.881Z,102090.84
2023-03-03T13:20:06.435Z,102086.19
2023-03-03T13:22:47.814Z,102090.22
2023-03-03T13:25:35.479Z,102077.84
2023-03-03T13:28:19.291Z,102084.19
2023-03-03T13:30:59.346Z,102077.75
2023-03-03T13:33:37.118Z,102086.91
2023-03-03T13:36:11.987Z,102082.94
2023-03-03T13:38:51.251Z,102071.25
2023-03-03T13:41:32.183Z,102062.13
2023-03-03T13:44:12.100Z,102069.81
2023-03-03T13:46:56.897Z,102068.38
2023-03-03T13:49:49.826Z,102072.81
2023-03-03T13:52:24.325Z,102066.66
2023-03-03T13:55:14.966Z,102062.00
2023-03-03T13:58:00.644Z,102056.78
2023-03-03T14:00:50.849Z,102055.31
2023-03-03T14:03:54.335Z,102053.19
2023-03-03T14:06:29.516Z,102038.16
2023-03-03T14:09:16.485Z,102036.44
2023-03-03T14:12:03.430Z,102028.19
2023-03-03T14:14:48.553Z,102038.75
2023-03-03T14:17:30.020Z,102035.91
2023-03-03T14:20:16.623Z,102037.84
2023-03-03T14:22:54.353Z,102042.16
2023-03-03T14:25:27.268Z,102032.41
2023-03-03T14:28:05.827Z,102037.50
2023-03-03T14:30:40.535Z,102031.78
2023-03-03T14:33:21.503Z,102025.19
2023-03-03T14:36:15.881Z,102021.34
2023-03-03T14:38:51.597Z,102022.75
2023-03-03T14:41:37.659Z,102021.22
2023-03-03T14:44:27.882Z,102028.09
2023-03-03T14:47:21.235Z,102020.78
2023-03-03T14:49:55.753Z,102016.50
2023-03-03T14:52:29.329Z,102017.63
2023-03-03T14:55:05.258Z,102015.66
2023-03-03T14:57:46.138Z,102017.53
2023-03-03T15:00:35.290Z,102018.31
2023-03-03T15:03:22.583Z,102009.69
2023-03-03T15:05:57.901Z,101993.44
2023-03-03T15:08:34.074Z,101981.69
2023-03-03T15:11:18.985Z,102002.28
2023-03-03T15:13:51.914Z,101997.84
2023-03-03T15:16:35.553Z,101991.13
2023-03-03T15:19:38.884Z,101994.75
2023-03-03T15:22:21.226Z,102001.97
2023-03-03T15:25:02.139Z,101989.06
2023-03-03T15:27:41.759Z,101990.34
2023-03-03T15:30:25.901Z,101984.47
2023-03-03T15:33:08.180Z,101979.78
2023-03-03T15:35:52.306Z,101972.53
2023-03-03T15:38:38.868Z,101976.25
2023-03-03T15:41:24.605Z,101974.97
2023-03-03T15:44:06.816Z,101975.63
2023-03-03T15:46:55.333Z,101962.97
2023-03-03T15:49:45.511Z,101963.91
2023-03-03T15:52:33.260Z,101957.81
2023-03-03T15:55:18.142Z,101958.06
2023-03-03T15:57:57.626Z,101961.97
2023-03-03T16:00:44.993Z,101950.09
2023-03-03T16:03:23.834Z,101963.22
2023-03-03T16:06:01.361Z,101961.47
2023-03-03T16:08:46.585Z,101966.59
2023-03-03T16:11:27.198Z,101973.78
2023-03-03T16:14:11.896Z,101983.19
2023-03-03T16:16:54.155Z,101978.34
2023-03-03T16:19:40.306Z,101951.97
2023-03-03T16:22:40.544Z,101954.66
2023-03-03T16:25:27.136Z,101949.13
2023-03-03T16:28:07.002Z,101958.38
2023-03-03T16:30:49.723Z,101956.06
2023-03-03T16:33:28.078Z,101965.28
2023-03-03T16:36:11.471Z,101956.19
2023-03-03T16:38:53.202Z,101949.16
2023-03-03T16:41:35.292Z,101954.53
2023-03-03T16:44:20.658Z,101955.50
2023-03-03T16:46:55.242Z,101953.97
2023-03-03T16:49:38.187Z,101950.25
2023-03-03T16:52:14.565Z,101957.63
2023-03-03T16:54:55.992Z,101957.75
2023-03-03T16:57:42.225Z,101944.88
2023-03-03T17:00:22.264Z,101959.56
2023-03-03T17:03:05.049Z,101960.41
2023-03-03T17:05:45.466Z,101965.78
2023-03-03T17:08:56.162Z,101967.59
2023-03-03T17:11:42.844Z,101957.19
2023-03-03T17:14:27.171Z,101971.19
2023-03-03T17:17:07.475Z,101973.97
2023-03-03T17:19:57.223Z,101976.47
2023-03-03T17:22:42.201Z,101965.66
2023-03-03T17:25:20.365Z,101988.31
2023-03-03T17:28:11.660Z,101992.31
2023-03-03T17:30:59.428Z,101986.97
2023-03-03T17:33:47.337Z,101988.78
2023-03-03T17:36:33.422Z,101985.72
2023-03-03T17:39:19.890Z,102002.63
2023-03-03T17:41:59.680Z,101995.06
2023-03-03T17:44:42.275Z,101998.06
2023-03-03T17:47:24.502Z,102003.00
2023-03-03T17:50:29.161Z,101996.22
2023-03-03T17:53:19.621Z,102002.59
2023-03-03T17:56:10.111Z,101999.38
2023-03-03T17:59:10.496Z,102011.44
2023-03-03T18:02:13.582Z,102013.16
2023-03-03T18:05:11.358Z,102021.94
2023-03-03T18:07:59.846Z,102020.56
2023-03-03T18:10:53.928Z,102012.78
2023-03-03T18:14:11.516Z,102020.09
2023-03-03T18:16:59.285Z,102024.50
2023-03-03T18:20:00.496Z,102023.44
2023-03-03T18:22:34.756Z,102023.19
2023-03-03T18:25:12.747Z,102017.38
2023-03-03T18:27:46.543Z,102012.72
2023-03-03T18:30:35.162Z,102025.00
2023-03-03T18:33:14.753Z,102028.63
2023-03-03T18:35:51.044Z,102028.38
2023-03-03T18:38:30.272Z,102029.47
2023-03-03T18:41:04.560Z,102035.19
2023-03-03T18:43:54.605Z,102027.31
2023-03-03T18:46:49.805Z,102034.81
2023-03-03T18:49:52.473Z,102022.84
2023-03-03T18:52:29.816Z,102034.31
2023-03-03T18:55:24.907Z,102026.94
2023-03-03T18:58:28.720Z,102030.00
2023-03-03T19:01:13.833Z,102039.19
2023-03-03T19:04:03.391Z,102037.94
2023-03-03T19:07:11.918Z,102000.47
2023-03-03T19:09:57.004Z,102041.91
2023-03-03T19:12:43.753Z,102044.94
2023-03-03T19:15:47.776Z,102032.75
2023-03-03T19:18:23.663Z,102047.63
2023-03-03T19:21:00.614Z,102041.47
2023-03-03T19:23:53.334Z,102040.31
2023-03-03T19:26:46.131Z,102038.22
2023-03-03T19:29:33.441Z,102038.84
2023-03-03T19:32:24.775Z,102015.09
2023-03-03T19:35:16.070Z,102040.59
2023-03-03T19:37:59.153Z,102034.63
2023-03-03T19:40:38.638Z,102045.19
2023-03-03T19:43:25.344Z,102037.94
2023-03-03T19:46:12.241Z,102043.63
2023-03-03T19:48:49.782Z,102042.41
2023-03-03T19:51:30.442Z,102025.13
2023-03-03T19:54:18.620Z,102042.84
2023-03-03T19:56:54.197Z,102040.88
2023-03-03T19:59:37.919Z,102039.66
2023-03-03T20:02:31.425Z,102033.31
2023-03-03T20:05:17.247Z,102044.38
2023-03-03T20:08:01.904Z,102044.38
2023-03-03T20:10:50.376Z,102050.56
2023-03-03T20:13:34.797Z,102058.03
2023-03-03T20:16:22.722Z,102047.25
2023-03-03T20:19:09.597Z,102051.63
2023-03-03T20:21:53.141Z,102064.19
2023-03-03T20:24:57.100Z,102049.75
2023-03-03T20:27:36.862Z,102058.97
2023-03-03T20:30:23.260Z,102053.13
2023-03-03T20:33:12.569Z,102056.97
2023-03-03T20:35:57.627Z,102056.97
2023-03-03T20:38:41.107Z,102056.41
2023-03-03T20:41:25.556Z,102046.69
2023-03-03T20:44:18.232Z,102052.34
2023-03-03T20:46:59.271Z,102044.44
2023-03-03T20:49:48.744Z,102046.63
2023-03-03T20:52:30.803Z,102064.69
2023-03-03T20:55:14.843Z,102051.47
2023-03-03T20:57:54.523Z,102053.59
2023-03-03T21:00:34.654Z,102051.31
2023-03-03T21:03:14.403Z,102054.66
2023-03-03T21:05:59.126Z,102054.06
2023-03-03T21:08:43.778Z,102072.63
2023-03-03T21:11:19.233Z,102061.81
2023-03-03T21:13:54.161Z,102053.88
2023-03-03T21:16:33.617Z,102057.31
2023-03-03T21:19:08.993Z,102045.25
2023-03-03T21:21:46.185Z,102046.06
2023-03-03T21:24:20.816Z,102050.19
2023-03-03T21:26:56.156Z,102055.56
2023-03-03T21:29:31.208Z,102044.56
2023-03-03T21:32:06.211Z,102040.50
2023-03-03T21:34:40.614Z,102048.38
2023-03-03T21:37:35.606Z,102047.50
2023-03-03T21:40:18.243Z,102044.31
2023-03-03T21:42:51.593Z,102038.75
2023-03-03T21:45:24.675Z,102059.72
2023-03-03T21:47:59.285Z,102061.97
2023-03-03T21:50:35.935Z,102023.97
2023-03-03T21:53:08.842Z,102050.00
2023-03-03T21:55:48.691Z,102057.31
2023-03-03T21:58:21.884Z,102060.50
2023-03-03T22:00:55.625Z,102066.66
2023-03-03T22:03:29.083Z,102064.63
2023-03-03T22:06:02.708Z,102057.47
2023-03-03T22:08:35.954Z,102059.19
2023-03-03T22:11:10.466Z,102062.69
2023-03-03T22:13:44.945Z,102065.19
2023-03-03T22:16:18.046Z,102054.03
2023-03-03T22:18:51.386Z,102062.53
2023-03-03T22:21:24.904Z,102059.44
2023-03-03T22:23:59.848Z,102050.22
2023-03-03T22:26:33.969Z,102067.66
2023-03-03T22:29:07.424Z,102059.28
2023-03-03T22:31:40.772Z,102052.41
2023-03-03T22:34:13.787Z,102048.03
2023-03-03T22:36:46.682Z,102050.84
2023-03-03T22:39:20.466Z,102053.88
2023-03-03T22:41:54.841Z,102053.94
2023-03-03T22:44:27.678Z,102055.97
2023-03-03T22:47:00.646Z,102040.78
2023-03-03T22:49:33.551Z,102040.69
2023-03-03T22:52:06.591Z,102047.25
2023-03-03T22:54:39.645Z,102051.50
2023-03-03T22:57:13.835Z,102039.69
2023-03-03T22:59:47.122Z,102040.78
2023-03-03T23:02:19.929Z,102046.97
2023-03-03T23:04:58.072Z,102042.22
2023-03-03T23:07:31.757Z,102046.63
2023-03-03T23:10:06.138Z,102047.66
2023-03-03T23:12:40.595Z,102047.91
2023-03-03T23:15:15.586Z,102041.94
2023-03-03T23:17:48.451Z,102046.72
2023-03-03T23:20:23.906Z,102046.56
2023-03-03T23:22:57.087Z,102037.44
2023-03-03T23:25:30.211Z,102050.81
2023-03-03T23:28:04.360Z,102045.94
2023-03-03T23:30:37.223Z,102041.66
2023-03-03T23:33:10.012Z,102034.31
2023-03-03T23:35:45.289Z,102039.31
2023-03-03T23:38:18.186Z,102029.56
2023-03-03T23:40:51.044Z,102038.53
2023-03-03T23:43:25.371Z,102039.94
2023-03-03T23:45:58.222Z,102021.53
2023-03-03T23:48:31.083Z,102039.22
2023-03-03T23:51:03.970Z,102040.22
2023-03-03T23:53:36.890Z,102037.44
2023-03-03T23:56:09.854Z,102032.41
2023-03-03T23:58:44.366Z,102039.78
